sensor_id;sensor_type;location;lat;lon;timestamp;P1;durP1;ratioP1;P2;durP2;ratioP2
7338;SDS011;33747;49.524;8.390;2023-05-10T00:02:01;4.97;;;0.73;;
7338;SDS011;33747;49.524;8.390;2023-05-10T00:04:26;2.35;;;0.50;;
7338;SDS011;33747;49.524;8.390;2023-05-10T00:06:52;1.20;;;0.70;;
7338;SDS011;33747;49.524;8.390;2023-05-10T00:09:18;0.70;;;0.70;;
7338;SDS011;33747;49.524;8.390;2023-05-10T00:11:43;0.70;;;0.70;;
7338;SDS011;33747;49.524;8.390;2023-05-10T00:14:09;4.32;;;0.80;;
7338;SDS011;33747;49.524;8.390;2023-05-10T00:16:34;0.70;;;0.70;;
7338;SDS011;33747;49.524;8.390;2023-05-10T00:18:59;2.55;;;0.90;;
7338;SDS011;33747;49.524;8.390;2023-05-10T00:21:25;0.80;;;0.80;;
7338;SDS011;33747;49.524;8.390;2023-05-10T00:23:50;0.77;;;0.77;;
7338;SDS011;33747;49.524;8.390;2023-05-10T00:26:16;0.95;;;0.82;;
7338;SDS011;33747;49.524;8.390;2023-05-10T00:28:41;0.80;;;0.80;;
7338;SDS011;33747;49.524;8.390;2023-05-10T00:31:07;1.98;;;0.65;;
7338;SDS011;33747;49.524;8.390;2023-05-10T00:33:32;0.90;;;0.80;;
7338;SDS011;33747;49.524;8.390;2023-05-10T00:35:57;1.25;;;0.70;;
7338;SDS011;33747;49.524;8.390;2023-05-10T00:38:23;1.42;;;0.98;;
7338;SDS011;33747;49.524;8.390;2023-05-10T00:40:48;1.00;;;0.90;;
7338;SDS011;33747;49.524;8.390;2023-05-10T00:43:13;1.75;;;0.80;;
7338;SDS011;33747;49.524;8.390;2023-05-10T00:45:39;0.88;;;0.80;;
7338;SDS011;33747;49.524;8.390;2023-05-10T00:48:05;0.70;;;0.70;;
7338;SDS011;33747;49.524;8.390;2023-05-10T00:50:30;1.13;;;0.90;;
7338;SDS011;33747;49.524;8.390;2023-05-10T00:52:57;1.10;;;0.70;;
7338;SDS011;33747;49.524;8.390;2023-05-10T00:55:24;6.47;;;1.17;;
7338;SDS011;33747;49.524;8.390;2023-05-10T00:57:49;3.03;;;0.75;;
7338;SDS011;33747;49.524;8.390;2023-05-10T01:00:15;0.80;;;0.80;;
7338;SDS011;33747;49.524;8.390;2023-05-10T01:02:44;0.90;;;0.90;;
7338;SDS011;33747;49.524;8.390;2023-05-10T01:05:11;3.33;;;0.90;;
7338;SDS011;33747;49.524;8.390;2023-05-10T01:07:36;0.80;;;0.80;;
7338;SDS011;33747;49.524;8.390;2023-05-10T01:10:01;0.70;;;0.70;;
7338;SDS011;33747;49.524;8.390;2023-05-10T01:12:27;0.90;;;0.90;;
7338;SDS011;33747;49.524;8.390;2023-05-10T01:14:52;5.97;;;0.95;;
7338;SDS011;33747;49.524;8.390;2023-05-10T01:17:18;0.75;;;0.75;;
7338;SDS011;33747;49.524;8.390;2023-05-10T01:19:43;1.25;;;1.10;;
7338;SDS011;33747;49.524;8.390;2023-05-10T01:22:30;0.85;;;0.82;;
7338;SDS011;33747;49.524;8.390;2023-05-10T01:25:19;1.33;;;0.70;;
7338;SDS011;33747;49.524;8.390;2023-05-10T01:34:00;0.93;;;0.70;;
7338;SDS011;33747;49.524;8.390;2023-05-10T01:36:40;0.88;;;0.80;;
7338;SDS011;33747;49.524;8.390;2023-05-10T01:39:16;4.47;;;0.90;;
7338;SDS011;33747;49.524;8.390;2023-05-10T01:44:31;3.53;;;0.63;;
7338;SDS011;33747;49.524;8.390;2023-05-10T01:47:05;1.60;;;0.60;;
7338;SDS011;33747;49.524;8.390;2023-05-10T01:49:34;2.20;;;1.05;;
7338;SDS011;33747;49.524;8.390;2023-05-10T01:52:06;1.58;;;1.00;;
7338;SDS011;33747;49.524;8.390;2023-05-10T01:54:35;1.30;;;0.90;;
7338;SDS011;33747;49.524;8.390;2023-05-10T01:57:02;3.30;;;0.80;;
7338;SDS011;33747;49.524;8.390;2023-05-10T01:59:30;1.58;;;0.90;;
7338;SDS011;33747;49.524;8.390;2023-05-10T02:02:01;3.88;;;0.90;;
7338;SDS011;33747;49.524;8.390;2023-05-10T02:04:27;1.13;;;1.02;;
7338;SDS011;33747;49.524;8.390;2023-05-10T02:06:53;0.93;;;0.90;;
7338;SDS011;33747;49.524;8.390;2023-05-10T02:09:20;5.35;;;1.80;;
7338;SDS011;33747;49.524;8.390;2023-05-10T02:11:45;5.35;;;1.38;;
7338;SDS011;33747;49.524;8.390;2023-05-10T02:14:13;2.05;;;0.90;;
7338;SDS011;33747;49.524;8.390;2023-05-10T02:16:39;3.38;;;0.95;;
7338;SDS011;33747;49.524;8.390;2023-05-10T02:19:04;2.20;;;0.90;;
7338;SDS011;33747;49.524;8.390;2023-05-10T02:21:30;1.00;;;1.00;;
7338;SDS011;33747;49.524;8.390;2023-05-10T02:23:56;1.75;;;1.10;;
7338;SDS011;33747;49.524;8.390;2023-05-10T02:26:22;0.98;;;0.98;;
7338;SDS011;33747;49.524;8.390;2023-05-10T02:28:48;4.55;;;1.67;;
7338;SDS011;33747;49.524;8.390;2023-05-10T02:31:14;5.68;;;1.00;;
7338;SDS011;33747;49.524;8.390;2023-05-10T02:33:40;0.95;;;0.95;;
7338;SDS011;33747;49.524;8.390;2023-05-10T02:36:06;3.90;;;1.67;;
7338;SDS011;33747;49.524;8.390;2023-05-10T02:38:32;1.17;;;1.08;;
7338;SDS011;33747;49.524;8.390;2023-05-10T02:40:58;1.30;;;1.20;;
7338;SDS011;33747;49.524;8.390;2023-05-10T02:43:24;4.10;;;1.40;;
7338;SDS011;33747;49.524;8.390;2023-05-10T02:45:49;1.05;;;1.05;;
7338;SDS011;33747;49.524;8.390;2023-05-10T02:48:15;1.42;;;1.33;;
7338;SDS011;33747;49.524;8.390;2023-05-10T02:50:42;1.42;;;1.08;;
7338;SDS011;33747;49.524;8.390;2023-05-10T02:53:15;4.88;;;1.13;;
7338;SDS011;33747;49.524;8.390;2023-05-10T02:55:48;1.23;;;1.13;;
7338;SDS011;33747;49.524;8.390;2023-05-10T02:58:16;1.60;;;1.00;;
7338;SDS011;33747;49.524;8.390;2023-05-10T03:00:44;1.70;;;1.40;;
7338;SDS011;33747;49.524;8.390;2023-05-10T03:03:10;2.05;;;1.10;;
7338;SDS011;33747;49.524;8.390;2023-05-10T03:05:35;1.05;;;1.05;;
7338;SDS011;33747;49.524;8.390;2023-05-10T03:08:01;1.30;;;1.20;;
7338;SDS011;33747;49.524;8.390;2023-05-10T03:10:29;3.55;;;1.52;;
7338;SDS011;33747;49.524;8.390;2023-05-10T03:15:37;2.58;;;1.30;;
7338;SDS011;33747;49.524;8.390;2023-05-10T03:18:15;5.72;;;1.50;;
7338;SDS011;33747;49.524;8.390;2023-05-10T03:26:00;3.75;;;3.35;;
7338;SDS011;33747;49.524;8.390;2023-05-10T03:28:26;1.98;;;1.88;;
7338;SDS011;33747;49.524;8.390;2023-05-10T03:30:52;2.13;;;2.03;;
7338;SDS011;33747;49.524;8.390;2023-05-10T03:33:19;1.83;;;1.70;;
7338;SDS011;33747;49.524;8.390;2023-05-10T03:35:44;4.85;;;1.70;;
7338;SDS011;33747;49.524;8.390;2023-05-10T03:38:10;1.92;;;1.83;;
7338;SDS011;33747;49.524;8.390;2023-05-10T03:40:36;3.55;;;1.70;;
7338;SDS011;33747;49.524;8.390;2023-05-10T03:43:02;4.65;;;1.75;;
7338;SDS011;33747;49.524;8.390;2023-05-10T03:45:27;4.78;;;2.00;;
7338;SDS011;33747;49.524;8.390;2023-05-10T03:47:53;2.17;;;1.75;;
7338;SDS011;33747;49.524;8.390;2023-05-10T03:50:18;1.70;;;1.52;;
7338;SDS011;33747;49.524;8.390;2023-05-10T03:52:44;1.48;;;1.38;;
7338;SDS011;33747;49.524;8.390;2023-05-10T03:55:10;3.00;;;2.20;;
7338;SDS011;33747;49.524;8.390;2023-05-10T03:57:35;2.50;;;1.88;;
7338;SDS011;33747;49.524;8.390;2023-05-10T04:00:00;2.50;;;2.20;;
7338;SDS011;33747;49.524;8.390;2023-05-10T04:02:26;2.22;;;2.13;;
7338;SDS011;33747;49.524;8.390;2023-05-10T04:04:51;3.08;;;2.28;;
7338;SDS011;33747;49.524;8.390;2023-05-10T04:07:17;4.63;;;2.45;;
7338;SDS011;33747;49.524;8.390;2023-05-10T04:09:43;2.65;;;2.40;;
7338;SDS011;33747;49.524;8.390;2023-05-10T04:12:08;5.18;;;2.45;;
7338;SDS011;33747;49.524;8.390;2023-05-10T04:14:33;5.65;;;2.38;;
7338;SDS011;33747;49.524;8.390;2023-05-10T04:16:59;5.20;;;2.42;;
7338;SDS011;33747;49.524;8.390;2023-05-10T04:19:28;5.63;;;2.53;;
7338;SDS011;33747;49.524;8.390;2023-05-10T04:21:54;2.20;;;1.98;;
7338;SDS011;33747;49.524;8.390;2023-05-10T04:24:19;2.33;;;2.22;;
7338;SDS011;33747;49.524;8.390;2023-05-10T04:26:44;2.10;;;2.00;;
7338;SDS011;33747;49.524;8.390;2023-05-10T04:29:10;2.00;;;1.90;;
7338;SDS011;33747;49.524;8.390;2023-05-10T04:31:35;2.30;;;2.10;;
7338;SDS011;33747;49.524;8.390;2023-05-10T04:34:01;2.58;;;2.13;;
7338;SDS011;33747;49.524;8.390;2023-05-10T04:36:26;2.40;;;2.10;;
7338;SDS011;33747;49.524;8.390;2023-05-10T04:38:52;2.83;;;2.28;;
7338;SDS011;33747;49.524;8.390;2023-05-10T04:41:18;3.13;;;2.20;;
7338;SDS011;33747;49.524;8.390;2023-05-10T04:43:43;3.25;;;2.78;;
7338;SDS011;33747;49.524;8.390;2023-05-10T04:46:08;5.88;;;2.90;;
7338;SDS011;33747;49.524;8.390;2023-05-10T04:48:34;4.95;;;2.35;;
7338;SDS011;33747;49.524;8.390;2023-05-10T04:50:59;3.83;;;2.70;;
7338;SDS011;33747;49.524;8.390;2023-05-10T04:53:25;5.45;;;2.50;;
7338;SDS011;33747;49.524;8.390;2023-05-10T04:55:50;4.13;;;2.08;;
7338;SDS011;33747;49.524;8.390;2023-05-10T04:58:15;2.45;;;2.10;;
7338;SDS011;33747;49.524;8.390;2023-05-10T05:00:41;6.00;;;2.28;;
7338;SDS011;33747;49.524;8.390;2023-05-10T05:03:07;4.25;;;2.67;;
7338;SDS011;33747;49.524;8.390;2023-05-10T05:05:32;5.93;;;2.40;;
7338;SDS011;33747;49.524;8.390;2023-05-10T05:07:58;3.13;;;2.47;;
7338;SDS011;33747;49.524;8.390;2023-05-10T05:10:23;2.35;;;2.20;;
7338;SDS011;33747;49.524;8.390;2023-05-10T05:12:48;3.08;;;2.40;;
7338;SDS011;33747;49.524;8.390;2023-05-10T05:15:14;4.50;;;2.53;;
7338;SDS011;33747;49.524;8.390;2023-05-10T05:17:41;9.80;;;2.70;;
7338;SDS011;33747;49.524;8.390;2023-05-10T05:20:07;3.65;;;2.60;;
7338;SDS011;33747;49.524;8.390;2023-05-10T05:22:33;7.45;;;2.88;;
7338;SDS011;33747;49.524;8.390;2023-05-10T05:24:58;3.40;;;2.80;;
7338;SDS011;33747;49.524;8.390;2023-05-10T05:27:24;4.55;;;2.55;;
7338;SDS011;33747;49.524;8.390;2023-05-10T05:29:54;3.25;;;2.97;;
7338;SDS011;33747;49.524;8.390;2023-05-10T05:32:20;5.38;;;2.63;;
7338;SDS011;33747;49.524;8.390;2023-05-10T05:34:45;2.67;;;2.33;;
7338;SDS011;33747;49.524;8.390;2023-05-10T05:37:14;5.85;;;2.50;;
7338;SDS011;33747;49.524;8.390;2023-05-10T05:39:40;2.63;;;2.40;;
7338;SDS011;33747;49.524;8.390;2023-05-10T05:42:06;3.85;;;2.78;;
7338;SDS011;33747;49.524;8.390;2023-05-10T05:44:31;2.85;;;2.65;;
7338;SDS011;33747;49.524;8.390;2023-05-10T05:46:56;4.45;;;2.90;;
7338;SDS011;33747;49.524;8.390;2023-05-10T05:49:22;3.03;;;2.67;;
7338;SDS011;33747;49.524;8.390;2023-05-10T05:51:47;2.45;;;2.25;;
7338;SDS011;33747;49.524;8.390;2023-05-10T05:54:14;4.82;;;2.53;;
7338;SDS011;33747;49.524;8.390;2023-05-10T05:56:39;1.80;;;1.70;;
7338;SDS011;33747;49.524;8.390;2023-05-10T05:59:05;2.22;;;2.13;;
7338;SDS011;33747;49.524;8.390;2023-05-10T06:01:30;2.28;;;1.92;;
7338;SDS011;33747;49.524;8.390;2023-05-10T06:03:56;2.92;;;1.80;;
7338;SDS011;33747;49.524;8.390;2023-05-10T06:06:21;4.13;;;1.70;;
7338;SDS011;33747;49.524;8.390;2023-05-10T06:08:47;4.15;;;1.80;;
7338;SDS011;33747;49.524;8.390;2023-05-10T06:11:12;2.85;;;1.90;;
7338;SDS011;33747;49.524;8.390;2023-05-10T06:13:37;14.32;;;2.10;;
7338;SDS011;33747;49.524;8.390;2023-05-10T06:16:03;1.35;;;1.33;;
7338;SDS011;33747;49.524;8.390;2023-05-10T06:18:28;2.70;;;1.80;;
7338;SDS011;33747;49.524;8.390;2023-05-10T06:20:54;3.28;;;2.05;;
7338;SDS011;33747;49.524;8.390;2023-05-10T06:23:19;6.25;;;1.40;;
7338;SDS011;33747;49.524;8.390;2023-05-10T06:25:44;3.17;;;1.73;;
7338;SDS011;33747;49.524;8.390;2023-05-10T06:28:10;14.82;;;2.05;;
7338;SDS011;33747;49.524;8.390;2023-05-10T06:30:35;4.05;;;2.03;;
7338;SDS011;33747;49.524;8.390;2023-05-10T06:33:01;3.40;;;1.70;;
7338;SDS011;33747;49.524;8.390;2023-05-10T06:35:27;1.75;;;1.58;;
7338;SDS011;33747;49.524;8.390;2023-05-10T06:37:53;7.72;;;2.03;;
7338;SDS011;33747;49.524;8.390;2023-05-10T06:40:18;5.50;;;2.28;;
7338;SDS011;33747;49.524;8.390;2023-05-10T06:42:44;2.33;;;1.45;;
7338;SDS011;33747;49.524;8.390;2023-05-10T06:45:10;5.22;;;1.80;;
7338;SDS011;33747;49.524;8.390;2023-05-10T06:47:35;3.80;;;1.75;;
7338;SDS011;33747;49.524;8.390;2023-05-10T06:50:01;4.85;;;2.85;;
7338;SDS011;33747;49.524;8.390;2023-05-10T06:52:26;4.63;;;1.83;;
7338;SDS011;33747;49.524;8.390;2023-05-10T06:54:51;4.82;;;1.70;;
7338;SDS011;33747;49.524;8.390;2023-05-10T06:57:17;2.70;;;2.22;;
7338;SDS011;33747;49.524;8.390;2023-05-10T06:59:42;5.25;;;1.77;;
7338;SDS011;33747;49.524;8.390;2023-05-10T07:02:08;4.53;;;1.95;;
7338;SDS011;33747;49.524;8.390;2023-05-10T07:04:34;5.88;;;2.30;;
7338;SDS011;33747;49.524;8.390;2023-05-10T07:06:59;3.90;;;1.38;;
7338;SDS011;33747;49.524;8.390;2023-05-10T07:09:25;3.95;;;1.50;;
7338;SDS011;33747;49.524;8.390;2023-05-10T07:11:50;3.35;;;1.50;;
7338;SDS011;33747;49.524;8.390;2023-05-10T07:14:15;3.88;;;1.50;;
7338;SDS011;33747;49.524;8.390;2023-05-10T07:16:41;1.30;;;1.20;;
7338;SDS011;33747;49.524;8.390;2023-05-10T07:19:07;2.25;;;1.02;;
7338;SDS011;33747;49.524;8.390;2023-05-10T07:21:32;1.25;;;0.68;;
7338;SDS011;33747;49.524;8.390;2023-05-10T07:23:57;4.38;;;0.77;;
7338;SDS011;33747;49.524;8.390;2023-05-10T07:26:23;1.45;;;1.02;;
7338;SDS011;33747;49.524;8.390;2023-05-10T07:28:49;4.63;;;1.27;;
7338;SDS011;33747;49.524;8.390;2023-05-10T07:31:14;4.60;;;0.80;;
7338;SDS011;33747;49.524;8.390;2023-05-10T07:33:39;1.30;;;0.93;;
7338;SDS011;33747;49.524;8.390;2023-05-10T07:36:05;1.55;;;0.95;;
7338;SDS011;33747;49.524;8.390;2023-05-10T07:38:30;6.72;;;1.30;;
7338;SDS011;33747;49.524;8.390;2023-05-10T07:40:56;0.82;;;0.82;;
7338;SDS011;33747;49.524;8.390;2023-05-10T07:43:21;0.68;;;0.68;;
7338;SDS011;33747;49.524;8.390;2023-05-10T07:45:47;2.05;;;1.00;;
7338;SDS011;33747;49.524;8.390;2023-05-10T07:48:12;0.88;;;0.88;;
7338;SDS011;33747;49.524;8.390;2023-05-10T07:50:37;3.35;;;1.00;;
7338;SDS011;33747;49.524;8.390;2023-05-10T07:53:03;0.90;;;0.90;;
7338;SDS011;33747;49.524;8.390;2023-05-10T07:55:28;1.00;;;0.90;;
7338;SDS011;33747;49.524;8.390;2023-05-10T07:57:53;0.90;;;0.90;;
7338;SDS011;33747;49.524;8.390;2023-05-10T08:00:19;1.83;;;0.82;;
7338;SDS011;33747;49.524;8.390;2023-05-10T08:02:45;3.55;;;0.80;;
7338;SDS011;33747;49.524;8.390;2023-05-10T08:05:11;1.83;;;1.00;;
7338;SDS011;33747;49.524;8.390;2023-05-10T08:07:36;1.17;;;1.05;;
7338;SDS011;33747;49.524;8.390;2023-05-10T08:10:02;0.73;;;0.73;;
7338;SDS011;33747;49.524;8.390;2023-05-10T08:12:27;0.80;;;0.80;;
7338;SDS011;33747;49.524;8.390;2023-05-10T08:14:53;0.75;;;0.70;;
7338;SDS011;33747;49.524;8.390;2023-05-10T08:17:18;1.13;;;1.00;;
7338;SDS011;33747;49.524;8.390;2023-05-10T08:19:44;0.75;;;0.75;;
7338;SDS011;33747;49.524;8.390;2023-05-10T08:22:09;0.90;;;0.63;;
7338;SDS011;33747;49.524;8.390;2023-05-10T08:24:35;1.23;;;0.90;;
7338;SDS011;33747;49.524;8.390;2023-05-10T08:27:03;0.90;;;0.80;;
7338;SDS011;33747;49.524;8.390;2023-05-10T08:29:29;3.90;;;1.23;;
7338;SDS011;33747;49.524;8.390;2023-05-10T08:31:55;1.88;;;0.80;;
7338;SDS011;33747;49.524;8.390;2023-05-10T08:34:20;0.88;;;0.88;;
7338;SDS011;33747;49.524;8.390;2023-05-10T08:36:45;3.97;;;1.00;;
7338;SDS011;33747;49.524;8.390;2023-05-10T08:39:11;1.50;;;0.93;;
7338;SDS011;33747;49.524;8.390;2023-05-10T08:41:36;0.70;;;0.70;;
7338;SDS011;33747;49.524;8.390;2023-05-10T08:44:04;3.42;;;0.93;;
7338;SDS011;33747;49.524;8.390;2023-05-10T08:46:30;1.13;;;0.90;;
7338;SDS011;33747;49.524;8.390;2023-05-10T08:48:57;6.60;;;0.77;;
7338;SDS011;33747;49.524;8.390;2023-05-10T08:51:24;1.35;;;0.73;;
7338;SDS011;33747;49.524;8.390;2023-05-10T08:53:51;0.73;;;0.73;;
7338;SDS011;33747;49.524;8.390;2023-05-10T08:56:17;6.35;;;1.05;;
7338;SDS011;33747;49.524;8.390;2023-05-10T08:58:43;3.65;;;1.23;;
7338;SDS011;33747;49.524;8.390;2023-05-10T09:01:08;4.70;;;1.35;;
7338;SDS011;33747;49.524;8.390;2023-05-10T09:03:34;7.65;;;1.23;;
7338;SDS011;33747;49.524;8.390;2023-05-10T09:06:00;0.80;;;0.80;;
7338;SDS011;33747;49.524;8.390;2023-05-10T09:08:25;3.60;;;1.17;;
7338;SDS011;33747;49.524;8.390;2023-05-10T09:10:51;4.28;;;1.33;;
7338;SDS011;33747;49.524;8.390;2023-05-10T09:13:17;3.83;;;1.42;;
7338;SDS011;33747;49.524;8.390;2023-05-10T09:15:44;2.80;;;1.00;;
7338;SDS011;33747;49.524;8.390;2023-05-10T09:18:10;3.17;;;1.20;;
7338;SDS011;33747;49.524;8.390;2023-05-10T09:20:35;4.85;;;1.75;;
7338;SDS011;33747;49.524;8.390;2023-05-10T09:23:01;2.05;;;1.00;;
7338;SDS011;33747;49.524;8.390;2023-05-10T09:25:26;3.38;;;1.10;;
7338;SDS011;33747;49.524;8.390;2023-05-10T09:27:51;3.05;;;1.15;;
7338;SDS011;33747;49.524;8.390;2023-05-10T09:32:52;1.95;;;1.10;;
7338;SDS011;33747;49.524;8.390;2023-05-10T09:35:18;1.38;;;0.88;;
7338;SDS011;33747;49.524;8.390;2023-05-10T09:37:46;7.30;;;1.10;;
7338;SDS011;33747;49.524;8.390;2023-05-10T09:42:40;3.05;;;0.80;;
7338;SDS011;33747;49.524;8.390;2023-05-10T09:45:06;2.20;;;0.98;;
7338;SDS011;33747;49.524;8.390;2023-05-10T09:47:32;3.40;;;1.00;;
7338;SDS011;33747;49.524;8.390;2023-05-10T09:49:58;0.70;;;0.70;;
7338;SDS011;33747;49.524;8.390;2023-05-10T09:52:28;0.90;;;0.90;;
7338;SDS011;33747;49.524;8.390;2023-05-10T09:55:01;1.77;;;0.90;;
7338;SDS011;33747;49.524;8.390;2023-05-10T09:57:26;1.58;;;0.73;;
7338;SDS011;33747;49.524;8.390;2023-05-10T09:59:51;0.70;;;0.60;;
7338;SDS011;33747;49.524;8.390;2023-05-10T10:02:19;1.77;;;1.13;;
7338;SDS011;33747;49.524;8.390;2023-05-10T10:04:44;2.78;;;0.80;;
7338;SDS011;33747;49.524;8.390;2023-05-10T10:07:09;1.40;;;1.08;;
7338;SDS011;33747;49.524;8.390;2023-05-10T10:09:35;3.53;;;1.00;;
7338;SDS011;33747;49.524;8.390;2023-05-10T10:12:01;2.67;;;0.80;;
7338;SDS011;33747;49.524;8.390;2023-05-10T10:14:27;0.85;;;0.80;;
7338;SDS011;33747;49.524;8.390;2023-05-10T10:16:53;1.95;;;0.95;;
7338;SDS011;33747;49.524;8.390;2023-05-10T10:19:19;2.03;;;0.95;;
7338;SDS011;33747;49.524;8.390;2023-05-10T10:21:47;1.20;;;0.77;;
7338;SDS011;33747;49.524;8.390;2023-05-10T10:24:14;1.67;;;1.10;;
7338;SDS011;33747;49.524;8.390;2023-05-10T10:26:39;3.60;;;1.10;;
7338;SDS011;33747;49.524;8.390;2023-05-10T10:32:29;0.85;;;0.80;;
7338;SDS011;33747;49.524;8.390;2023-05-10T10:34:49;0.98;;;0.80;;
7338;SDS011;33747;49.524;8.390;2023-05-10T10:37:14;7.00;;;0.85;;
7338;SDS011;33747;49.524;8.390;2023-05-10T10:39:39;3.05;;;0.80;;
7338;SDS011;33747;49.524;8.390;2023-05-10T10:42:05;2.53;;;0.90;;
7338;SDS011;33747;49.524;8.390;2023-05-10T10:46:59;1.00;;;0.80;;
7338;SDS011;33747;49.524;8.390;2023-05-10T10:49:25;1.30;;;1.17;;
7338;SDS011;33747;49.524;8.390;2023-05-10T10:54:38;2.83;;;0.73;;
7338;SDS011;33747;49.524;8.390;2023-05-10T10:57:10;1.23;;;0.70;;
7338;SDS011;33747;49.524;8.390;2023-05-10T10:59:41;3.67;;;0.93;;
7338;SDS011;33747;49.524;8.390;2023-05-10T11:02:10;1.20;;;0.75;;
7338;SDS011;33747;49.524;8.390;2023-05-10T11:04:42;1.60;;;0.77;;
7338;SDS011;33747;49.524;8.390;2023-05-10T11:07:18;2.28;;;1.00;;
7338;SDS011;33747;49.524;8.390;2023-05-10T11:09:45;1.63;;;0.90;;
7338;SDS011;33747;49.524;8.390;2023-05-10T11:12:11;1.55;;;0.75;;
7338;SDS011;33747;49.524;8.390;2023-05-10T11:14:37;2.38;;;0.82;;
7338;SDS011;33747;49.524;8.390;2023-05-10T11:17:02;1.30;;;1.00;;
7338;SDS011;33747;49.524;8.390;2023-05-10T11:20:08;0.45;;;0.45;;
7338;SDS011;33747;49.524;8.390;2023-05-10T11:22:53;2.83;;;0.63;;
7338;SDS011;33747;49.524;8.390;2023-05-10T11:25:19;1.10;;;0.88;;
7338;SDS011;33747;49.524;8.390;2023-05-10T11:27:48;1.83;;;0.65;;
7338;SDS011;33747;49.524;8.390;2023-05-10T11:30:14;6.53;;;0.90;;
7338;SDS011;33747;49.524;8.390;2023-05-10T11:32:40;1.60;;;1.02;;
7338;SDS011;33747;49.524;8.390;2023-05-10T11:35:09;1.75;;;0.60;;
7338;SDS011;33747;49.524;8.390;2023-05-10T11:37:36;2.33;;;1.27;;
7338;SDS011;33747;49.524;8.390;2023-05-10T11:40:03;2.60;;;0.80;;
7338;SDS011;33747;49.524;8.390;2023-05-10T11:42:28;3.55;;;0.90;;
7338;SDS011;33747;49.524;8.390;2023-05-10T11:44:54;1.75;;;0.82;;
7338;SDS011;33747;49.524;8.390;2023-05-10T11:47:19;2.25;;;0.70;;
7338;SDS011;33747;49.524;8.390;2023-05-10T11:49:45;2.78;;;0.90;;
7338;SDS011;33747;49.524;8.390;2023-05-10T11:52:11;1.17;;;0.82;;
7338;SDS011;33747;49.524;8.390;2023-05-10T11:54:36;1.98;;;0.88;;
7338;SDS011;33747;49.524;8.390;2023-05-10T11:57:02;2.95;;;1.38;;
7338;SDS011;33747;49.524;8.390;2023-05-10T11:59:27;1.67;;;1.02;;
7338;SDS011;33747;49.524;8.390;2023-05-10T12:01:53;2.03;;;0.82;;
7338;SDS011;33747;49.524;8.390;2023-05-10T12:04:18;1.73;;;0.70;;
7338;SDS011;33747;49.524;8.390;2023-05-10T12:06:44;5.47;;;1.10;;
7338;SDS011;33747;49.524;8.390;2023-05-10T12:09:11;3.95;;;1.70;;
7338;SDS011;33747;49.524;8.390;2023-05-10T12:11:37;2.10;;;0.93;;
7338;SDS011;33747;49.524;8.390;2023-05-10T12:14:04;3.00;;;0.90;;
7338;SDS011;33747;49.524;8.390;2023-05-10T12:16:30;1.70;;;1.13;;
7338;SDS011;33747;49.524;8.390;2023-05-10T12:18:56;6.43;;;0.90;;
7338;SDS011;33747;49.524;8.390;2023-05-10T12:21:23;2.45;;;0.90;;
7338;SDS011;33747;49.524;8.390;2023-05-10T12:23:52;1.73;;;0.80;;
7338;SDS011;33747;49.524;8.390;2023-05-10T12:26:21;2.03;;;0.70;;
7338;SDS011;33747;49.524;8.390;2023-05-10T12:28:47;1.83;;;1.02;;
7338;SDS011;33747;49.524;8.390;2023-05-10T12:31:12;4.90;;;0.95;;
7338;SDS011;33747;49.524;8.390;2023-05-10T12:33:39;2.10;;;0.80;;
7338;SDS011;33747;49.524;8.390;2023-05-10T12:36:07;5.07;;;0.90;;
7338;SDS011;33747;49.524;8.390;2023-05-10T12:38:43;2.80;;;0.70;;
7338;SDS011;33747;49.524;8.390;2023-05-10T12:41:10;1.77;;;0.80;;
7338;SDS011;33747;49.524;8.390;2023-05-10T12:43:36;3.50;;;0.70;;
7338;SDS011;33747;49.524;8.390;2023-05-10T12:48:38;3.05;;;0.60;;
7338;SDS011;33747;49.524;8.390;2023-05-10T12:51:04;2.33;;;1.02;;
7338;SDS011;33747;49.524;8.390;2023-05-10T12:53:30;1.65;;;0.95;;
7338;SDS011;33747;49.524;8.390;2023-05-10T12:55:56;2.20;;;0.75;;
7338;SDS011;33747;49.524;8.390;2023-05-10T12:58:22;3.22;;;0.80;;
7338;SDS011;33747;49.524;8.390;2023-05-10T13:00:47;1.60;;;0.85;;
7338;SDS011;33747;49.524;8.390;2023-05-10T13:03:12;3.78;;;1.00;;
7338;SDS011;33747;49.524;8.390;2023-05-10T13:05:38;2.75;;;1.13;;
7338;SDS011;33747;49.524;8.390;2023-05-10T13:08:03;2.80;;;0.52;;
7338;SDS011;33747;49.524;8.390;2023-05-10T13:10:29;1.77;;;0.70;;
7338;SDS011;33747;49.524;8.390;2023-05-10T13:12:56;1.55;;;0.75;;
7338;SDS011;33747;49.524;8.390;2023-05-10T13:15:22;0.95;;;0.70;;
7338;SDS011;33747;49.524;8.390;2023-05-10T13:17:47;2.38;;;0.98;;
7338;SDS011;33747;49.524;8.390;2023-05-10T13:20:12;1.00;;;0.75;;
7338;SDS011;33747;49.524;8.390;2023-05-10T13:22:38;3.45;;;0.77;;
7338;SDS011;33747;49.524;8.390;2023-05-10T13:25:03;4.82;;;0.77;;
7338;SDS011;33747;49.524;8.390;2023-05-10T13:27:29;2.58;;;0.68;;
7338;SDS011;33747;49.524;8.390;2023-05-10T13:29:54;1.80;;;0.60;;
7338;SDS011;33747;49.524;8.390;2023-05-10T13:32:20;1.00;;;0.60;;
7338;SDS011;33747;49.524;8.390;2023-05-10T13:34:46;3.70;;;1.05;;
7338;SDS011;33747;49.524;8.390;2023-05-10T13:37:11;5.47;;;0.77;;
7338;SDS011;33747;49.524;8.390;2023-05-10T13:39:36;2.33;;;0.85;;
7338;SDS011;33747;49.524;8.390;2023-05-10T13:42:02;3.00;;;0.70;;
7338;SDS011;33747;49.524;8.390;2023-05-10T13:44:28;4.10;;;0.63;;
7338;SDS011;33747;49.524;8.390;2023-05-10T13:46:53;0.82;;;0.80;;
7338;SDS011;33747;49.524;8.390;2023-05-10T13:49:20;3.70;;;0.77;;
7338;SDS011;33747;49.524;8.390;2023-05-10T13:51:46;4.00;;;0.73;;
7338;SDS011;33747;49.524;8.390;2023-05-10T13:54:11;2.05;;;0.60;;
7338;SDS011;33747;49.524;8.390;2023-05-10T13:56:37;2.15;;;0.63;;
7338;SDS011;33747;49.524;8.390;2023-05-10T13:59:02;4.35;;;0.77;;
7338;SDS011;33747;49.524;8.390;2023-05-10T14:01:28;1.83;;;0.70;;
7338;SDS011;33747;49.524;8.390;2023-05-10T14:03:53;1.75;;;1.00;;
7338;SDS011;33747;49.524;8.390;2023-05-10T14:06:18;1.65;;;0.70;;
7338;SDS011;33747;49.524;8.390;2023-05-10T14:08:44;1.50;;;0.38;;
7338;SDS011;33747;49.524;8.390;2023-05-10T14:11:09;4.68;;;1.08;;
7338;SDS011;33747;49.524;8.390;2023-05-10T14:13:35;5.22;;;0.70;;
7338;SDS011;33747;49.524;8.390;2023-05-10T14:16:00;1.40;;;0.63;;
7338;SDS011;33747;49.524;8.390;2023-05-10T14:18:29;6.28;;;0.70;;
7338;SDS011;33747;49.524;8.390;2023-05-10T14:20:54;1.40;;;0.98;;
7338;SDS011;33747;49.524;8.390;2023-05-10T14:23:20;1.13;;;0.60;;
7338;SDS011;33747;49.524;8.390;2023-05-10T14:25:49;0.40;;;0.40;;
7338;SDS011;33747;49.524;8.390;2023-05-10T14:28:14;3.60;;;0.60;;
7338;SDS011;33747;49.524;8.390;2023-05-10T14:30:40;2.75;;;0.70;;
7338;SDS011;33747;49.524;8.390;2023-05-10T14:33:06;3.22;;;0.43;;
7338;SDS011;33747;49.524;8.390;2023-05-10T14:35:32;3.97;;;0.80;;
7338;SDS011;33747;49.524;8.390;2023-05-10T14:37:58;5.82;;;0.90;;
7338;SDS011;33747;49.524;8.390;2023-05-10T14:40:23;3.13;;;0.70;;
7338;SDS011;33747;49.524;8.390;2023-05-10T14:42:49;5.47;;;0.73;;
7338;SDS011;33747;49.524;8.390;2023-05-10T14:45:15;0.82;;;0.50;;
7338;SDS011;33747;49.524;8.390;2023-05-10T14:47:40;1.98;;;0.70;;
7338;SDS011;33747;49.524;8.390;2023-05-10T14:50:06;2.10;;;0.70;;
7338;SDS011;33747;49.524;8.390;2023-05-10T14:52:31;0.75;;;0.63;;
7338;SDS011;33747;49.524;8.390;2023-05-10T14:54:57;3.95;;;0.75;;
7338;SDS011;33747;49.524;8.390;2023-05-10T14:57:24;1.45;;;0.55;;
7338;SDS011;33747;49.524;8.390;2023-05-10T14:59:49;0.77;;;0.77;;
7338;SDS011;33747;49.524;8.390;2023-05-10T15:02:14;3.88;;;0.50;;
7338;SDS011;33747;49.524;8.390;2023-05-10T15:04:40;3.95;;;0.40;;
7338;SDS011;33747;49.524;8.390;2023-05-10T15:07:05;3.00;;;0.47;;
7338;SDS011;33747;49.524;8.390;2023-05-10T15:09:30;1.45;;;0.38;;
7338;SDS011;33747;49.524;8.390;2023-05-10T15:11:56;0.82;;;0.50;;
7338;SDS011;33747;49.524;8.390;2023-05-10T15:14:22;0.80;;;0.60;;
7338;SDS011;33747;49.524;8.390;2023-05-10T15:16:47;1.75;;;0.70;;
7338;SDS011;33747;49.524;8.390;2023-05-10T15:19:13;4.13;;;0.50;;
7338;SDS011;33747;49.524;8.390;2023-05-10T15:21:38;0.50;;;0.50;;
7338;SDS011;33747;49.524;8.390;2023-05-10T15:24:07;1.10;;;0.60;;
7338;SDS011;33747;49.524;8.390;2023-05-10T15:26:33;3.85;;;0.70;;
7338;SDS011;33747;49.524;8.390;2023-05-10T15:28:58;2.17;;;0.60;;